sensor_id;sensor_type;location;lat;lon;timestamp;temperature;humidity
20714;DHT22;10518;50.742;4.226;2022-07-09T00:02:04;19.00;99.90
20714;DHT22;10518;50.742;4.226;2022-07-09T00:04:30;19.00;99.90
20714;DHT22;10518;50.742;4.226;2022-07-09T00:06:56;18.90;99.90
20714;DHT22;10518;50.742;4.226;2022-07-09T00:09:21;18.90;99.90
20714;DHT22;10518;50.742;4.226;2022-07-09T00:11:47;18.90;99.90
20714;DHT22;10518;50.742;4.226;2022-07-09T00:14:13;18.90;99.90
20714;DHT22;10518;50.742;4.226;2022-07-09T00:16:38;18.80;99.90
20714;DHT22;10518;50.742;4.226;2022-07-09T00:19:04;18.80;99.90
20714;DHT22;10518;50.742;4.226;2022-07-09T00:21:30;18.70;99.90
20714;DHT22;10518;50.742;4.226;2022-07-09T00:23:55;18.70;99.90
20714;DHT22;10518;50.742;4.226;2022-07-09T00:26:21;18.60;99.90
20714;DHT22;10518;50.742;4.226;2022-07-09T00:28:46;18.60;99.90
20714;DHT22;10518;50.742;4.226;2022-07-09T00:31:12;18.60;99.90
20714;DHT22;10518;50.742;4.226;2022-07-09T00:33:38;18.60;99.90
20714;DHT22;10518;50.742;4.226;2022-07-09T00:36:04;18.50;99.90
20714;DHT22;10518;50.742;4.226;2022-07-09T00:38:29;18.50;99.90
20714;DHT22;10518;50.742;4.226;2022-07-09T00:40:55;18.50;99.90
20714;DHT22;10518;50.742;4.226;2022-07-09T00:43:22;18.30;99.90
20714;DHT22;10518;50.742;4.226;2022-07-09T00:45:48;18.20;99.90
20714;DHT22;10518;50.742;4.226;2022-07-09T00:48:14;18.20;99.90
20714;DHT22;10518;50.742;4.226;2022-07-09T00:50:42;18.20;99.90
20714;DHT22;10518;50.742;4.226;2022-07-09T00:53:09;18.10;99.90
20714;DHT22;10518;50.742;4.226;2022-07-09T00:55:37;18.10;99.90
20714;DHT22;10518;50.742;4.226;2022-07-09T00:58:03;18.10;99.90
20714;DHT22;10518;50.742;4.226;2022-07-09T01:00:29;18.00;99.90
20714;DHT22;10518;50.742;4.226;2022-07-09T01:02:55;17.90;99.90
20714;DHT22;10518;50.742;4.226;2022-07-09T01:05:21;18.00;99.90
20714;DHT22;10518;50.742;4.226;2022-07-09T01:07:47;17.90;99.90
20714;DHT22;10518;50.742;4.226;2022-07-09T01:10:12;17.90;99.90
20714;DHT22;10518;50.742;4.226;2022-07-09T01:12:38;17.90;99.90
20714;DHT22;10518;50.742;4.226;2022-07-09T01:15:05;17.90;99.90
20714;DHT22;10518;50.742;4.226;2022-07-09T01:17:40;17.80;99.90
20714;DHT22;10518;50.742;4.226;2022-07-09T01:20:07;17.80;99.90
20714;DHT22;10518;50.742;4.226;2022-07-09T01:22:34;17.80;99.90
20714;DHT22;10518;50.742;4.226;2022-07-09T01:25:00;17.80;99.90
20714;DHT22;10518;50.742;4.226;2022-07-09T01:27:26;17.80;99.90
20714;DHT22;10518;50.742;4.226;2022-07-09T01:29:52;17.70;99.90
20714;DHT22;10518;50.742;4.226;2022-07-09T01:32:17;17.70;99.90
20714;DHT22;10518;50.742;4.226;2022-07-09T01:34:43;17.70;99.90
20714;DHT22;10518;50.742;4.226;2022-07-09T01:37:09;17.70;99.90
20714;DHT22;10518;50.742;4.226;2022-07-09T01:39:35;17.70;99.90
20714;DHT22;10518;50.742;4.226;2022-07-09T01:42:00;17.70;99.90
20714;DHT22;10518;50.742;4.226;2022-07-09T01:44:26;17.70;99.90
20714;DHT22;10518;50.742;4.226;2022-07-09T01:46:52;17.70;99.90
20714;DHT22;10518;50.742;4.226;2022-07-09T01:49:17;17.70;99.90
20714;DHT22;10518;50.742;4.226;2022-07-09T01:51:43;17.80;99.90
20714;DHT22;10518;50.742;4.226;2022-07-09T01:54:08;17.80;99.90
20714;DHT22;10518;50.742;4.226;2022-07-09T01:56:34;17.80;99.90
20714;DHT22;10518;50.742;4.226;2022-07-09T01:59:00;17.80;99.90
20714;DHT22;10518;50.742;4.226;2022-07-09T02:01:26;17.90;99.90
20714;DHT22;10518;50.742;4.226;2022-07-09T02:03:52;17.90;99.90
20714;DHT22;10518;50.742;4.226;2022-07-09T02:06:18;17.90;99.90
20714;DHT22;10518;50.742;4.226;2022-07-09T02:08:44;17.80;99.90
20714;DHT22;10518;50.742;4.226;2022-07-09T02:11:10;17.80;99.90
20714;DHT22;10518;50.742;4.226;2022-07-09T02:13:36;17.70;99.90
20714;DHT22;10518;50.742;4.226;2022-07-09T02:16:02;17.70;99.90
20714;DHT22;10518;50.742;4.226;2022-07-09T02:18:28;17.70;99.90
20714;DHT22;10518;50.742;4.226;2022-07-09T02:20:54;17.70;99.90
20714;DHT22;10518;50.742;4.226;2022-07-09T02:23:22;17.70;99.90
20714;DHT22;10518;50.742;4.226;2022-07-09T02:25:48;17.60;99.90
20714;DHT22;10518;50.742;4.226;2022-07-09T02:28:13;17.60;99.90
20714;DHT22;10518;50.742;4.226;2022-07-09T02:30:39;17.60;99.90
20714;DHT22;10518;50.742;4.226;2022-07-09T02:33:05;17.50;99.90
20714;DHT22;10518;50.742;4.226;2022-07-09T02:35:31;17.50;99.90
20714;DHT22;10518;50.742;4.226;2022-07-09T02:37:56;17.50;99.90
20714;DHT22;10518;50.742;4.226;2022-07-09T02:40:22;17.50;99.90
20714;DHT22;10518;50.742;4.226;2022-07-09T02:42:48;17.40;99.90
20714;DHT22;10518;50.742;4.226;2022-07-09T02:45:13;17.40;99.90
20714;DHT22;10518;50.742;4.226;2022-07-09T02:47:39;17.40;99.90
20714;DHT22;10518;50.742;4.226;2022-07-09T02:50:05;17.40;99.90
20714;DHT22;10518;50.742;4.226;2022-07-09T02:52:31;17.40;99.90
20714;DHT22;10518;50.742;4.226;2022-07-09T02:54:57;17.30;99.90
20714;DHT22;10518;50.742;4.226;2022-07-09T02:57:22;17.30;99.90
20714;DHT22;10518;50.742;4.226;2022-07-09T02:59:48;17.30;99.90
20714;DHT22;10518;50.742;4.226;2022-07-09T03:02:13;17.30;99.90
20714;DHT22;10518;50.742;4.226;2022-07-09T03:04:39;17.30;99.90
20714;DHT22;10518;50.742;4.226;2022-07-09T03:07:04;17.20;99.90
20714;DHT22;10518;50.742;4.226;2022-07-09T03:09:30;17.20;99.90
20714;DHT22;10518;50.742;4.226;2022-07-09T03:11:56;17.20;99.90
20714;DHT22;10518;50.742;4.226;2022-07-09T03:14:21;17.30;99.90
20714;DHT22;10518;50.742;4.226;2022-07-09T03:16:47;17.20;99.90
20714;DHT22;10518;50.742;4.226;2022-07-09T03:19:12;17.20;99.90
20714;DHT22;10518;50.742;4.226;2022-07-09T03:21:39;17.30;99.90
20714;DHT22;10518;50.742;4.226;2022-07-09T03:24:05;17.30;99.90
20714;DHT22;10518;50.742;4.226;2022-07-09T03:26:31;17.30;99.90
20714;DHT22;10518;50.742;4.226;2022-07-09T03:28:56;17.30;99.90
20714;DHT22;10518;50.742;4.226;2022-07-09T03:31:22;17.20;99.90
20714;DHT22;10518;50.742;4.226;2022-07-09T03:33:47;17.30;99.90
20714;DHT22;10518;50.742;4.226;2022-07-09T03:36:13;17.20;99.90
20714;DHT22;10518;50.742;4.226;2022-07-09T03:38:40;17.20;99.90
20714;DHT22;10518;50.742;4.226;2022-07-09T03:41:06;17.20;99.90
20714;DHT22;10518;50.742;4.226;2022-07-09T03:43:31;17.20;99.90
20714;DHT22;10518;50.742;4.226;2022-07-09T03:45:57;17.30;99.90
20714;DHT22;10518;50.742;4.226;2022-07-09T03:48:22;17.30;99.90
20714;DHT22;10518;50.742;4.226;2022-07-09T03:50:48;17.20;99.90
20714;DHT22;10518;50.742;4.226;2022-07-09T03:53:14;17.20;99.90
20714;DHT22;10518;50.742;4.226;2022-07-09T03:55:39;17.20;99.90
20714;DHT22;10518;50.742;4.226;2022-07-09T03:58:05;17.20;99.90
20714;DHT22;10518;50.742;4.226;2022-07-09T04:00:30;17.20;99.90
20714;DHT22;10518;50.742;4.226;2022-07-09T04:02:56;17.20;99.90
20714;DHT22;10518;50.742;4.226;2022-07-09T04:05:22;17.20;99.90
20714;DHT22;10518;50.742;4.226;2022-07-09T04:07:47;17.30;99.90
20714;DHT22;10518;50.742;4.226;2022-07-09T04:10:13;17.20;99.90
20714;DHT22;10518;50.742;4.226;2022-07-09T04:12:38;17.20;99.90
20714;DHT22;10518;50.742;4.226;2022-07-09T04:15:04;17.20;99.90
20714;DHT22;10518;50.742;4.226;2022-07-09T04:17:30;17.20;99.90
20714;DHT22;10518;50.742;4.226;2022-07-09T04:19:56;17.30;99.90
20714;DHT22;10518;50.742;4.226;2022-07-09T04:22:21;17.30;99.90
20714;DHT22;10518;50.742;4.226;2022-07-09T04:24:47;17.30;99.90
20714;DHT22;10518;50.742;4.226;2022-07-09T04:27:12;17.30;99.90
20714;DHT22;10518;50.742;4.226;2022-07-09T04:29:38;17.50;99.90
20714;DHT22;10518;50.742;4.226;2022-07-09T04:32:04;17.40;99.90
20714;DHT22;10518;50.742;4.226;2022-07-09T04:34:29;17.50;99.90
20714;DHT22;10518;50.742;4.226;2022-07-09T04:36:55;17.50;99.90
20714;DHT22;10518;50.742;4.226;2022-07-09T04:39:21;17.60;99.90
20714;DHT22;10518;50.742;4.226;2022-07-09T04:41:49;17.60;99.90
20714;DHT22;10518;50.742;4.226;2022-07-09T04:44:15;17.60;99.90
20714;DHT22;10518;50.742;4.226;2022-07-09T04:46:42;17.70;99.90
20714;DHT22;10518;50.742;4.226;2022-07-09T04:49:08;17.70;99.90
20714;DHT22;10518;50.742;4.226;2022-07-09T04:51:34;17.70;99.90
20714;DHT22;10518;50.742;4.226;2022-07-09T04:54:00;17.70;99.90
20714;DHT22;10518;50.742;4.226;2022-07-09T04:56:25;17.90;99.90
20714;DHT22;10518;50.742;4.226;2022-07-09T04:58:51;17.90;99.90
20714;DHT22;10518;50.742;4.226;2022-07-09T05:01:22;17.90;99.90
20714;DHT22;10518;50.742;4.226;2022-07-09T05:03:48;17.90;99.90
20714;DHT22;10518;50.742;4.226;2022-07-09T05:06:18;17.90;99.90
20714;DHT22;10518;50.742;4.226;2022-07-09T05:08:43;18.00;99.90
20714;DHT22;10518;50.742;4.226;2022-07-09T05:11:09;18.20;99.90
20714;DHT22;10518;50.742;4.226;2022-07-09T05:13:38;18.40;99.90
20714;DHT22;10518;50.742;4.226;2022-07-09T05:16:07;18.60;99.90
20714;DHT22;10518;50.742;4.226;2022-07-09T05:18:33;18.80;99.90
20714;DHT22;10518;50.742;4.226;2022-07-09T05:20:59;18.90;99.90
20714;DHT22;10518;50.742;4.226;2022-07-09T05:23:25;19.00;99.90
20714;DHT22;10518;50.742;4.226;2022-07-09T05:25:50;19.00;99.90
20714;DHT22;10518;50.742;4.226;2022-07-09T05:28:16;19.00;99.90
20714;DHT22;10518;50.742;4.226;2022-07-09T05:30:42;19.10;99.90
20714;DHT22;10518;50.742;4.226;2022-07-09T05:33:08;19.20;99.90
20714;DHT22;10518;50.742;4.226;2022-07-09T05:35:34;19.40;99.90
20714;DHT22;10518;50.742;4.226;2022-07-09T05:37:59;19.60;99.90
20714;DHT22;10518;50.742;4.226;2022-07-09T05:40:25;19.80;99.90
20714;DHT22;10518;50.742;4.226;2022-07-09T05:42:50;20.30;99.90
20714;DHT22;10518;50.742;4.226;2022-07-09T05:45:16;21.10;99.90
20714;DHT22;10518;50.742;4.226;2022-07-09T05:47:42;21.80;99.90
20714;DHT22;10518;50.742;4.226;2022-07-09T05:50:08;22.80;99.90
20714;DHT22;10518;50.742;4.226;2022-07-09T05:52:34;23.70;99.90
20714;DHT22;10518;50.742;4.226;2022-07-09T05:55:00;24.30;99.90
20714;DHT22;10518;50.742;4.226;2022-07-09T05:57:26;25.30;99.90
20714;DHT22;10518;50.742;4.226;2022-07-09T05:59:51;26.30;99.90
20714;DHT22;10518;50.742;4.226;2022-07-09T06:02:17;27.30;99.90
20714;DHT22;10518;50.742;4.226;2022-07-09T06:04:44;28.30;99.90
20714;DHT22;10518;50.742;4.226;2022-07-09T06:07:09;29.10;99.90
20714;DHT22;10518;50.742;4.226;2022-07-09T06:09:35;29.80;99.90
20714;DHT22;10518;50.742;4.226;2022-07-09T06:12:01;30.40;99.90
20714;DHT22;10518;50.742;4.226;2022-07-09T06:14:26;31.00;99.90
20714;DHT22;10518;50.742;4.226;2022-07-09T06:16:52;31.50;99.90
20714;DHT22;10518;50.742;4.226;2022-07-09T06:19:21;31.90;99.90
20714;DHT22;10518;50.742;4.226;2022-07-09T06:21:46;32.30;99.90
20714;DHT22;10518;50.742;4.226;2022-07-09T06:24:12;32.60;99.90
20714;DHT22;10518;50.742;4.226;2022-07-09T06:26:37;33.00;99.90
20714;DHT22;10518;50.742;4.226;2022-07-09T06:29:03;33.00;99.90
20714;DHT22;10518;50.742;4.226;2022-07-09T06:31:29;33.20;99.90
20714;DHT22;10518;50.742;4.226;2022-07-09T06:33:54;33.50;99.90
20714;DHT22;10518;50.742;4.226;2022-07-09T06:36:22;33.90;99.20
20714;DHT22;10518;50.742;4.226;2022-07-09T06:38:47;33.80;99.00
20714;DHT22;10518;50.742;4.226;2022-07-09T06:41:32;34.10;98.20
20714;DHT22;10518;50.742;4.226;2022-07-09T06:43:58;34.30;97.90
20714;DHT22;10518;50.742;4.226;2022-07-09T06:46:23;34.50;97.50
20714;DHT22;10518;50.742;4.226;2022-07-09T06:48:49;34.60;97.20
20714;DHT22;10518;50.742;4.226;2022-07-09T06:51:15;34.40;97.20
20714;DHT22;10518;50.742;4.226;2022-07-09T06:53:40;33.30;97.60
20714;DHT22;10518;50.742;4.226;2022-07-09T06:56:06;32.70;97.70
20714;DHT22;10518;50.742;4.226;2022-07-09T06:58:32;32.50;98.00
20714;DHT22;10518;50.742;4.226;2022-07-09T07:00:57;32.40;98.60
20714;DHT22;10518;50.742;4.226;2022-07-09T07:03:23;32.80;98.80
20714;DHT22;10518;50.742;4.226;2022-07-09T07:05:48;33.10;97.80
20714;DHT22;10518;50.742;4.226;2022-07-09T07:08:14;33.00;97.30
20714;DHT22;10518;50.742;4.226;2022-07-09T07:10:39;33.10;97.50
20714;DHT22;10518;50.742;4.226;2022-07-09T07:13:05;33.30;97.20
20714;DHT22;10518;50.742;4.226;2022-07-09T07:15:31;33.20;96.60
20714;DHT22;10518;50.742;4.226;2022-07-09T07:17:57;32.70;96.90
20714;DHT22;10518;50.742;4.226;2022-07-09T07:20:22;32.10;97.00
20714;DHT22;10518;50.742;4.226;2022-07-09T07:22:50;31.50;98.30
20714;DHT22;10518;50.742;4.226;2022-07-09T07:25:16;31.10;99.00
20714;DHT22;10518;50.742;4.226;2022-07-09T07:27:43;30.50;99.80
20714;DHT22;10518;50.742;4.226;2022-07-09T07:30:09;30.30;99.90
20714;DHT22;10518;50.742;4.226;2022-07-09T07:32:34;30.40;99.90
20714;DHT22;10518;50.742;4.226;2022-07-09T07:35:00;30.60;99.90
20714;DHT22;10518;50.742;4.226;2022-07-09T07:37:28;31.10;99.30
20714;DHT22;10518;50.742;4.226;2022-07-09T07:39:54;30.70;99.90
20714;DHT22;10518;50.742;4.226;2022-07-09T07:42:19;30.40;99.90
20714;DHT22;10518;50.742;4.226;2022-07-09T07:44:45;30.40;99.90
20714;DHT22;10518;50.742;4.226;2022-07-09T07:47:10;30.30;99.90
20714;DHT22;10518;50.742;4.226;2022-07-09T07:49:36;30.20;99.00
20714;DHT22;10518;50.742;4.226;2022-07-09T07:52:02;30.10;99.30
20714;DHT22;10518;50.742;4.226;2022-07-09T07:54:28;30.00;99.40
20714;DHT22;10518;50.742;4.226;2022-07-09T07:56:54;29.70;99.90
20714;DHT22;10518;50.742;4.226;2022-07-09T07:59:19;29.90;99.90
20714;DHT22;10518;50.742;4.226;2022-07-09T08:01:45;30.00;99.50
20714;DHT22;10518;50.742;4.226;2022-07-09T08:04:10;30.20;99.70
20714;DHT22;10518;50.742;4.226;2022-07-09T08:06:36;30.00;99.60
20714;DHT22;10518;50.742;4.226;2022-07-09T08:09:02;29.50;99.30
20714;DHT22;10518;50.742;4.226;2022-07-09T08:11:28;28.90;99.80
20714;DHT22;10518;50.742;4.226;2022-07-09T08:13:54;28.60;99.90
20714;DHT22;10518;50.742;4.226;2022-07-09T08:16:19;28.50;99.90
20714;DHT22;10518;50.742;4.226;2022-07-09T08:18:45;28.50;99.90
20714;DHT22;10518;50.742;4.226;2022-07-09T08:21:11;28.70;99.90
20714;DHT22;10518;50.742;4.226;2022-07-09T08:23:37;28.60;99.90
20714;DHT22;10518;50.742;4.226;2022-07-09T08:26:26;28.40;99.90
20714;DHT22;10518;50.742;4.226;2022-07-09T08:28:53;28.10;99.90
20714;DHT22;10518;50.742;4.226;2022-07-09T08:31:19;27.80;99.90
20714;DHT22;10518;50.742;4.226;2022-07-09T08:33:45;27.50;99.90
20714;DHT22;10518;50.742;4.226;2022-07-09T08:36:11;27.20;99.90
20714;DHT22;10518;50.742;4.226;2022-07-09T08:38:37;27.00;99.90
20714;DHT22;10518;50.742;4.226;2022-07-09T08:41:04;26.80;99.90
20714;DHT22;10518;50.742;4.226;2022-07-09T08:43:35;26.70;99.90
20714;DHT22;10518;50.742;4.226;2022-07-09T08:46:01;26.40;99.90
20714;DHT22;10518;50.742;4.226;2022-07-09T08:48:27;26.40;99.90
20714;DHT22;10518;50.742;4.226;2022-07-09T08:50:52;26.40;99.90
20714;DHT22;10518;50.742;4.226;2022-07-09T08:53:19;26.50;99.90
20714;DHT22;10518;50.742;4.226;2022-07-09T08:55:45;26.60;99.90
20714;DHT22;10518;50.742;4.226;2022-07-09T08:58:12;26.70;99.90
20714;DHT22;10518;50.742;4.226;2022-07-09T09:00:39;26.80;99.90
20714;DHT22;10518;50.742;4.226;2022-07-09T09:03:05;27.00;99.90
20714;DHT22;10518;50.742;4.226;2022-07-09T09:05:31;27.10;99.90
20714;DHT22;10518;50.742;4.226;2022-07-09T09:07:57;27.20;99.90
20714;DHT22;10518;50.742;4.226;2022-07-09T09:10:25;27.20;99.90
20714;DHT22;10518;50.742;4.226;2022-07-09T09:12:57;27.20;99.90
20714;DHT22;10518;50.742;4.226;2022-07-09T09:15:23;27.00;99.90
20714;DHT22;10518;50.742;4.226;2022-07-09T09:17:49;27.10;99.90
20714;DHT22;10518;50.742;4.226;2022-07-09T09:20:16;27.30;99.90
20714;DHT22;10518;50.742;4.226;2022-07-09T09:22:50;27.20;99.90
20714;DHT22;10518;50.742;4.226;2022-07-09T09:25:21;27.20;99.90
20714;DHT22;10518;50.742;4.226;2022-07-09T09:27:54;27.10;99.90
20714;DHT22;10518;50.742;4.226;2022-07-09T09:30:20;27.00;99.90
20714;DHT22;10518;50.742;4.226;2022-07-09T09:33:04;26.80;99.90
20714;DHT22;10518;50.742;4.226;2022-07-09T09:35:33;26.80;99.90
20714;DHT22;10518;50.742;4.226;2022-07-09T09:37:58;26.70;99.90
20714;DHT22;10518;50.742;4.226;2022-07-09T09:40:25;26.60;99.90
20714;DHT22;10518;50.742;4.226;2022-07-09T09:42:51;26.60;99.90
20714;DHT22;10518;50.742;4.226;2022-07-09T09:45:18;26.50;99.90
20714;DHT22;10518;50.742;4.226;2022-07-09T09:47:51;26.50;99.90
20714;DHT22;10518;50.742;4.226;2022-07-09T09:50:22;26.50;99.90
20714;DHT22;10518;50.742;4.226;2022-07-09T09:52:49;26.50;99.90
20714;DHT22;10518;50.742;4.226;2022-07-09T09:55:17;26.40;99.90
20714;DHT22;10518;50.742;4.226;2022-07-09T09:57:43;26.30;99.90
20714;DHT22;10518;50.742;4.226;2022-07-09T10:00:14;26.10;99.90
20714;DHT22;10518;50.742;4.226;2022-07-09T10:02:47;26.00;99.90
20714;DHT22;10518;50.742;4.226;2022-07-09T10:05:13;26.00;99.90
20714;DHT22;10518;50.742;4.226;2022-07-09T10:07:40;26.20;99.90
20714;DHT22;10518;50.742;4.226;2022-07-09T10:10:06;26.20;99.90
20714;DHT22;10518;50.742;4.226;2022-07-09T10:12:36;26.40;99.90
20714;DHT22;10518;50.742;4.226;2022-07-09T10:15:23;26.50;99.90
20714;DHT22;10518;50.742;4.226;2022-07-09T10:17:49;26.60;99.90
20714;DHT22;10518;50.742;4.226;2022-07-09T10:20:14;26.70;99.90
20714;DHT22;10518;50.742;4.226;2022-07-09T10:22:42;26.60;99.90
20714;DHT22;10518;50.742;4.226;2022-07-09T10:25:10;26.80;99.90
20714;DHT22;10518;50.742;4.226;2022-07-09T10:27:49;26.70;99.90
20714;DHT22;10518;50.742;4.226;2022-07-09T10:30:26;26.70;99.90
20714;DHT22;10518;50.742;4.226;2022-07-09T10:33:09;26.60;99.90
20714;DHT22;10518;50.742;4.226;2022-07-09T10:35:48;26.30;99.90
20714;DHT22;10518;50.742;4.226;2022-07-09T10:38:15;25.90;99.90
20714;DHT22;10518;50.742;4.226;2022-07-09T10:40:46;25.90;99.90
20714;DHT22;10518;50.742;4.226;2022-07-09T10:43:12;26.10;99.90
20714;DHT22;10518;50.742;4.226;2022-07-09T10:45:42;26.30;99.90
20714;DHT22;10518;50.742;4.226;2022-07-09T10:48:11;26.00;99.90
20714;DHT22;10518;50.742;4.226;2022-07-09T10:50:42;26.20;99.90
20714;DHT22;10518;50.742;4.226;2022-07-09T10:53:08;26.40;99.90
20714;DHT22;10518;50.742;4.226;2022-07-09T10:55:34;26.40;99.90
20714;DHT22;10518;50.742;4.226;2022-07-09T10:58:00;26.30;99.90
20714;DHT22;10518;50.742;4.226;2022-07-09T11:00:29;26.10;99.90
20714;DHT22;10518;50.742;4.226;2022-07-09T11:03:03;26.20;99.90
20714;DHT22;10518;50.742;4.226;2022-07-09T11:05:31;26.30;99.90
20714;DHT22;10518;50.742;4.226;2022-07-09T11:08:05;26.30;99.90
20714;DHT22;10518;50.742;4.226;2022-07-09T11:10:36;26.30;99.90
20714;DHT22;10518;50.742;4.226;2022-07-09T11:13:03;26.30;99.90
20714;DHT22;10518;50.742;4.226;2022-07-09T11:15:30;26.20;99.90
20714;DHT22;10518;50.742;4.226;2022-07-09T11:18:03;25.80;99.90
20714;DHT22;10518;50.742;4.226;2022-07-09T11:20:51;25.90;99.90
20714;DHT22;10518;50.742;4.226;2022-07-09T11:23:16;26.00;99.90
20714;DHT22;10518;50.742;4.226;2022-07-09T11:25:42;26.10;99.90
20714;DHT22;10518;50.742;4.226;2022-07-09T11:28:08;26.00;99.90
20714;DHT22;10518;50.742;4.226;2022-07-09T11:30:43;25.80;99.90
20714;DHT22;10518;50.742;4.226;2022-07-09T11:33:12;25.90;99.90
20714;DHT22;10518;50.742;4.226;2022-07-09T11:35:37;26.00;99.90
20714;DHT22;10518;50.742;4.226;2022-07-09T11:38:04;26.10;99.90
20714;DHT22;10518;50.742;4.226;2022-07-09T11:40:32;26.00;99.90
20714;DHT22;10518;50.742;4.226;2022-07-09T11:42:58;25.70;99.90
20714;DHT22;10518;50.742;4.226;2022-07-09T11:45:26;25.50;99.90
20714;DHT22;10518;50.742;4.226;2022-07-09T11:48:12;25.60;99.90
20714;DHT22;10518;50.742;4.226;2022-07-09T11:50:43;25.70;99.90
20714;DHT22;10518;50.742;4.226;2022-07-09T11:53:19;25.70;99.90
20714;DHT22;10518;50.742;4.226;2022-07-09T11:56:00;25.80;99.90
20714;DHT22;10518;50.742;4.226;2022-07-09T11:58:26;25.80;99.90
20714;DHT22;10518;50.742;4.226;2022-07-09T12:00:52;25.90;99.90
20714;DHT22;10518;50.742;4.226;2022-07-09T12:03:28;25.80;99.90
20714;DHT22;10518;50.742;4.226;2022-07-09T12:05:55;25.90;99.90
20714;DHT22;10518;50.742;4.226;2022-07-09T12:08:31;26.00;99.90
20714;DHT22;10518;50.742;4.226;2022-07-09T12:11:00;26.10;99.90
20714;DHT22;10518;50.742;4.226;2022-07-09T12:13:25;26.00;99.90
20714;DHT22;10518;50.742;4.226;2022-07-09T12:15:51;26.00;99.90
20714;DHT22;10518;50.742;4.226;2022-07-09T12:18:17;26.00;99.90
20714;DHT22;10518;50.742;4.226;2022-07-09T12:20:42;25.70;99.90
20714;DHT22;10518;50.742;4.226;2022-07-09T12:23:08;25.40;99.90
20714;DHT22;10518;50.742;4.226;2022-07-09T12:25:34;25.10;99.90
20714;DHT22;10518;50.742;4.226;2022-07-09T12:27:59;25.30;99.90
20714;DHT22;10518;50.742;4.226;2022-07-09T12:30:25;25.10;99.90
20714;DHT22;10518;50.742;4.226;2022-07-09T12:32:51;24.80;99.90
20714;DHT22;10518;50.742;4.226;2022-07-09T12:35:16;24.40;99.90
20714;DHT22;10518;50.742;4.226;2022-07-09T12:37:42;24.50;99.90
20714;DHT22;10518;50.742;4.226;2022-07-09T12:40:09;24.60;99.90
20714;DHT22;10518;50.742;4.226;2022-07-09T12:42:39;24.70;99.90
20714;DHT22;10518;50.742;4.226;2022-07-09T12:45:05;24.80;99.90
20714;DHT22;10518;50.742;4.226;2022-07-09T12:47:31;24.60;99.90
20714;DHT22;10518;50.742;4.226;2022-07-09T12:49:56;24.80;99.90
20714;DHT22;10518;50.742;4.226;2022-07-09T12:52:22;25.10;99.90
20714;DHT22;10518;50.742;4.226;2022-07-09T12:54:48;25.30;99.90
20714;DHT22;10518;50.742;4.226;2022-07-09T12:57:13;24.90;99.90
20714;DHT22;10518;50.742;4.226;2022-07-09T12:59:39;25.00;99.90
20714;DHT22;10518;50.742;4.226;2022-07-09T13:02:05;25.10;99.90
20714;DHT22;10518;50.742;4.226;2022-07-09T13:04:31;25.00;99.90
20714;DHT22;10518;50.742;4.226;2022-07-09T13:06:57;24.70;99.90
20714;DHT22;10518;50.742;4.226;2022-07-09T13:09:23;24.70;99.90
20714;DHT22;10518;50.742;4.226;2022-07-09T13:11:48;25.00;99.90
20714;DHT22;10518;50.742;4.226;2022-07-09T13:14:14;25.10;99.90
20714;DHT22;10518;50.742;4.226;2022-07-09T13:16:40;25.00;99.90
20714;DHT22;10518;50.742;4.226;2022-07-09T13:19:06;24.80;99.90
20714;DHT22;10518;50.742;4.226;2022-07-09T13:21:31;24.80;99.90
20714;DHT22;10518;50.742;4.226;2022-07-09T13:23:57;24.80;99.90
20714;DHT22;10518;50.742;4.226;2022-07-09T13:26:23;24.50;99.90
20714;DHT22;10518;50.742;4.226;2022-07-09T13:28:49;24.30;99.90
20714;DHT22;10518;50.742;4.226;2022-07-09T13:31:15;24.20;99.90
20714;DHT22;10518;50.742;4.226;2022-07-09T13:33:40;23.80;99.90
20714;DHT22;10518;50.742;4.226;2022-07-09T13:36:06;23.70;99.90
20714;DHT22;10518;50.742;4.226;2022-07-09T13:38:33;23.90;99.90
20714;DHT22;10518;50.742;4.226;2022-07-09T13:40:59;24.20;99.90
20714;DHT22;10518;50.742;4.226;2022-07-09T13:43:25;24.40;99.90
20714;DHT22;10518;50.742;4.226;2022-07-09T13:45:54;24.20;99.90
20714;DHT22;10518;50.742;4.226;2022-07-09T13:48:20;23.90;99.90
20714;DHT22;10518;50.742;4.226;2022-07-09T13:50:46;24.00;99.90
20714;DHT22;10518;50.742;4.226;2022-07-09T13:53:11;24.10;99.90
20714;DHT22;10518;50.742;4.226;2022-07-09T13:55:37;24.20;99.90
20714;DHT22;10518;50.742;4.226;2022-07-09T13:58:02;24.30;99.90
20714;DHT22;10518;50.742;4.226;2022-07-09T14:00:28;24.40;99.90
20714;DHT22;10518;50.742;4.226;2022-07-09T14:02:54;24.00;99.90
20714;DHT22;10518;50.742;4.226;2022-07-09T14:05:19;23.70;99.90
20714;DHT22;10518;50.742;4.226;2022-07-09T14:07:45;23.70;99.90
20714;DHT22;10518;50.742;4.226;2022-07-09T14:10:11;23.80;99.90
20714;DHT22;10518;50.742;4.226;2022-07-09T14:12:37;23.70;99.90
20714;DHT22;10518;50.742;4.226;2022-07-09T14:15:03;23.30;99.90
20714;DHT22;10518;50.742;4.226;2022-07-09T14:17:29;23.10;99.90
20714;DHT22;10518;50.742;4.226;2022-07-09T14:19:55;23.20;99.90
20714;DHT22;10518;50.742;4.226;2022-07-09T14:22:21;23.40;99.90
20714;DHT22;10518;50.742;4.226;2022-07-09T14:24:46;23.70;99.90
20714;DHT22;10518;50.742;4.226;2022-07-09T14:27:12;24.00;99.90
20714;DHT22;10518;50.742;4.226;2022-07-09T14:29:38;23.70;99.90
20714;DHT22;10518;50.742;4.226;2022-07-09T14:32:04;23.60;99.90
20714;DHT22;10518;50.742;4.226;2022-07-09T14:34:33;23.30;99.90
20714;DHT22;10518;50.742;4.226;2022-07-09T14:36:58;23.10;99.90
20714;DHT22;10518;50.742;4.226;2022-07-09T14:39:24;23.10;99.90
20714;DHT22;10518;50.742;4.226;2022-07-09T14:41:50;23.10;99.90
20714;DHT22;10518;50.742;4.226;2022-07-09T14:44:15;22.70;99.90
20714;DHT22;10518;50.742;4.226;2022-07-09T14:46:41;23.10;99.90
20714;DHT22;10518;50.742;4.226;2022-07-09T14:49:07;23.10;99.90
20714;DHT22;10518;50.742;4.226;2022-07-09T14:51:34;23.40;99.90
20714;DHT22;10518;50.742;4.226;2022-07-09T14:54:01;23.60;99.90
20714;DHT22;10518;50.742;4.226;2022-07-09T14:56:27;23.60;99.90
20714;DHT22;10518;50.742;4.226;2022-07-09T14:58:52;23.80;99.90
20714;DHT22;10518;50.742;4.226;2022-07-09T15:01:18;23.60;99.90
20714;DHT22;10518;50.742;4.226;2022-07-09T15:03:43;23.70;99.90
20714;DHT22;10518;50.742;4.226;2022-07-09T15:06:09;23.40;99.90
20714;DHT22;10518;50.742;4.226;2022-07-09T15:08:35;23.40;99.90
20714;DHT22;10518;50.742;4.226;2022-07-09T15:11:00;23.30;99.90
20714;DHT22;10518;50.742;4.226;2022-07-09T15:13:27;23.10;99.90
20714;DHT22;10518;50.742;4.226;2022-07-09T15:15:53;23.20;99.90
20714;DHT22;10518;50.742;4.226;2022-07-09T15:18:19;23.30;99.90
20714;DHT22;10518;50.742;4.226;2022-07-09T15:20:44;23.40;99.90
20714;DHT22;10518;50.742;4.226;2022-07-09T15:23:10;23.60;99.90
20714;DHT22;10518;50.742;4.226;2022-07-09T15:25:38;23.60;99.90
20714;DHT22;10518;50.742;4.226;2022-07-09T15:28:04;23.50;99.90